Time;durP1;ratioP1;P1;durP2;ratioP2;P2;SDS_P1;SDS_P2;PMS_P1;PMS_P2;Temp;Humidity;BMP_temperature;BMP_pressure;BME280_temperature;BME280_humidity;BME280_pressure;Samples;Min_cycle;Max_cycle;Signal;HPM_P1;HPM_P2
2022/05/25 00:03:35;;;;;;;9.80;6.85;;;;;;;6.47;100.00;101090.09;10482775;28;20174;-75
2022/05/25 00:08:36;;;;;;;12.38;7.00;;;;;;;6.40;100.00;101089.59;10465505;28;20397;-75
2022/05/25 00:13:36;;;;;;;12.00;7.22;;;;;;;6.37;100.00;101095.47;10455731;28;20097;-75
2022/05/25 00:18:37;;;;;;;9.30;6.43;;;;;;;6.35;100.00;101089.25;10436799;28;20034;-75
2022/05/25 00:23:37;;;;;;;9.50;6.38;;;;;;;6.29;100.00;101099.25;10432953;28;20526;-75
2022/05/25 00:28:38;;;;;;;11.80;6.93;;;;;;;6.23;100.00;101104.94;10439572;28;20107;-75
2022/05/25 00:33:38;;;;;;;12.45;7.88;;;;;;;6.22;100.00;101102.22;10449404;28;20506;-75
2022/05/25 00:38:39;;;;;;;8.80;6.30;;;;;;;6.22;100.00;101105.72;10453560;28;20120;-74
2022/05/25 00:43:39;;;;;;;9.07;6.70;;;;;;;6.25;100.00;101102.44;10451803;28;20064;-75
2022/05/25 00:49:14;;;;;;;12.75;6.40;;;;;;;6.40;100.00;101108.69;10435083;28;20065;-75
2022/05/25 00:54:19;;;;;;;10.35;6.82;;;;;;;6.41;100.00;101113.09;10454721;28;20169;-75
2022/05/25 00:59:26;;;;;;;9.60;6.07;;;;;;;6.39;100.00;101117.28;10449199;28;20040;-75
2022/05/25 01:04:26;;;;;;;14.10;8.10;;;;;;;6.34;100.00;101120.38;10468175;28;20499;-74
2022/05/25 01:09:52;;;;;;;13.13;9.38;;;;;;;6.40;100.00;101118.19;10465777;28;20045;-74
2022/05/25 01:15:04;;;;;;;12.75;7.45;;;;;;;6.46;100.00;101110.81;10431868;28;20040;-74
2022/05/25 01:20:25;;;;;;;12.25;7.07;;;;;;;6.37;100.00;101120.59;10468565;28;20056;-74
2022/05/25 01:25:44;;;;;;;11.73;8.02;;;;;;;6.29;100.00;101123.56;10467986;28;20032;-75
2022/05/25 01:30:45;;;;;;;12.40;8.23;;;;;;;6.32;100.00;101128.06;10473847;28;20049;-75
2022/05/25 01:36:06;;;;;;;11.25;8.10;;;;;;;6.26;100.00;101130.22;10450999;28;20571;-75
2022/05/25 01:41:29;;;;;;;14.32;9.55;;;;;;;6.27;100.00;101137.22;10428399;28;20028;-75
2022/05/25 01:46:34;;;;;;;13.52;7.88;;;;;;;6.28;100.00;101139.03;10462515;28;20434;-75
2022/05/25 01:51:49;;;;;;;15.70;9.40;;;;;;;6.22;100.00;101147.31;10460442;28;20082;-75
2022/05/25 01:56:53;;;;;;;15.18;9.15;;;;;;;6.09;100.00;101150.75;10450652;28;20132;-75
2022/05/25 02:07:26;;;;;;;14.63;10.05;;;;;;;6.17;100.00;101152.19;10470002;28;20135;-76
2022/05/25 02:12:47;;;;;;;13.48;9.38;;;;;;;6.15;100.00;101150.28;10442957;28;20044;-75
2022/05/25 02:18:21;;;;;;;15.20;9.85;;;;;;;6.11;100.00;101163.88;10470482;28;20060;-75
2022/05/25 02:23:28;;;;;;;11.93;8.93;;;;;;;6.07;100.00;101161.84;10446623;28;20094;-75
2022/05/25 02:28:35;;;;;;;16.65;11.63;;;;;;;6.07;100.00;101174.84;10422230;28;20086;-75
2022/05/25 02:33:53;;;;;;;13.82;9.10;;;;;;;6.10;100.00;101178.53;10441657;28;20044;-75
2022/05/25 02:38:53;;;;;;;17.27;9.20;;;;;;;6.06;100.00;101178.22;10441174;28;20471;-74
2022/05/25 02:43:54;;;;;;;16.40;10.60;;;;;;;6.02;100.00;101166.69;10485186;28;20036;-74
2022/05/25 02:48:54;;;;;;;15.18;9.85;;;;;;;5.90;100.00;101176.19;10480474;28;20064;-74
2022/05/25 02:53:55;;;;;;;16.50;11.40;;;;;;;5.88;100.00;101181.28;10449623;28;20048;-74
2022/05/25 02:58:55;;;;;;;19.60;13.38;;;;;;;5.90;100.00;101184.91;10468061;28;20178;-75
2022/05/25 03:03:56;;;;;;;20.20;12.68;;;;;;;5.82;100.00;101191.22;10480534;28;20033;-75
2022/05/25 03:08:56;;;;;;;17.60;11.80;;;;;;;5.81;100.00;101199.81;10479054;28;20040;-74
2022/05/25 03:13:57;;;;;;;17.45;11.35;;;;;;;5.71;100.00;101206.03;10449392;28;20048;-75
2022/05/25 03:18:58;;;;;;;21.73;11.55;;;;;;;5.70;100.00;101209.41;10469385;28;20507;-74
2022/05/25 03:23:59;;;;;;;19.60;13.43;;;;;;;5.65;100.00;101210.78;10481255;28;20033;-74
2022/05/25 03:28:59;;;;;;;18.80;12.85;;;;;;;5.60;100.00;101218.25;10482956;28;20086;-75
2022/05/25 03:34:00;;;;;;;21.13;13.13;;;;;;;5.64;100.00;101217.69;10482028;28;20417;-74
2022/05/25 03:39:00;;;;;;;21.02;12.23;;;;;;;5.61;100.00;101222.66;10490567;28;20056;-74
2022/05/25 03:44:01;;;;;;;24.40;13.48;;;;;;;5.59;100.00;101227.72;10470773;28;20051;-74
2022/05/25 03:49:02;;;;;;;25.63;12.45;;;;;;;5.75;100.00;101226.22;10489726;28;20033;-74
2022/05/25 03:54:02;;;;;;;29.33;13.77;;;;;;;5.74;100.00;101224.44;10480748;28;20123;-74
2022/05/25 03:59:03;;;;;;;20.05;12.43;;;;;;;5.85;100.00;101233.91;10471993;28;20036;-74
2022/05/25 04:04:04;;;;;;;24.10;13.45;;;;;;;5.83;100.00;101229.41;10446732;28;20052;-74
2022/05/25 04:09:05;;;;;;;28.02;14.40;;;;;;;5.93;100.00;101234.47;10447592;28;20033;-75
2022/05/25 04:14:06;;;;;;;26.85;13.50;;;;;;;5.95;100.00;101253.69;10475114;28;20178;-76
2022/05/25 04:19:06;;;;;;;23.67;14.15;;;;;;;5.99;100.00;101247.91;10466947;28;20063;-74
2022/05/25 04:24:07;;;;;;;25.30;13.80;;;;;;;6.12;100.00;101249.72;10470590;28;20075;-75
2022/05/25 04:29:08;;;;;;;28.63;14.30;;;;;;;6.31;100.00;101254.53;10475750;28;20032;-74
2022/05/25 04:34:11;;;;;;;25.30;13.05;;;;;;;6.76;100.00;101251.56;10480466;28;20032;-75
2022/05/25 04:39:12;;;;;;;25.60;12.73;;;;;;;7.11;100.00;101253.06;10470184;28;20041;-74
2022/05/25 04:44:12;;;;;;;26.52;12.60;;;;;;;7.09;100.00;101253.75;10462142;28;20127;-74
2022/05/25 04:49:13;;;;;;;30.40;15.75;;;;;;;7.01;100.00;101263.66;10477348;28;20122;-74
2022/05/25 04:54:13;;;;;;;33.25;17.15;;;;;;;7.07;100.00;101258.88;10473192;28;20041;-75
2022/05/25 04:59:14;;;;;;;30.85;17.23;;;;;;;7.38;100.00;101260.03;10482135;28;20117;-73
2022/05/25 05:04:14;;;;;;;31.17;16.95;;;;;;;7.54;100.00;101267.16;10483909;28;20064;-74
2022/05/25 05:09:15;;;;;;;26.05;16.83;;;;;;;7.93;100.00;101279.28;10456316;28;20126;-74
2022/05/25 05:14:16;;;;;;;32.55;16.20;;;;;;;8.92;100.00;101275.88;10470462;28;20092;-74
2022/05/25 05:19:17;;;;;;;16.77;9.82;;;;;;;9.82;100.00;101273.28;10468820;28;20512;-74
2022/05/25 05:24:17;;;;;;;13.15;9.15;;;;;;;10.99;100.00;101278.81;10464476;28;20115;-74
2022/05/25 05:29:18;;;;;;;14.38;6.20;;;;;;;12.39;100.00;101274.31;10470655;28;20037;-74
2022/05/25 05:34:18;;;;;;;8.73;5.70;;;;;;;13.16;89.15;101266.38;10470201;28;20197;-74
2022/05/25 05:39:20;;;;;;;7.80;4.65;;;;;;;13.63;79.97;101270.16;10467468;28;20072;-76
2022/05/25 05:44:22;;;;;;;15.95;5.88;;;;;;;13.94;80.49;101274.03;10466327;28;20052;-75
2022/05/25 05:49:23;;;;;;;8.05;4.00;;;;;;;14.74;69.96;101264.81;10445477;28;20120;-75
2022/05/25 05:54:23;;;;;;;8.98;3.92;;;;;;;15.12;67.95;101269.69;10452046;28;20033;-75
2022/05/25 05:59:24;;;;;;;8.25;4.53;;;;;;;15.78;66.45;101265.75;10435080;28;20039;-75
2022/05/25 06:04:25;;;;;;;9.97;3.73;;;;;;;16.81;59.89;101267.13;10475377;28;20077;-75
2022/05/25 06:09:25;;;;;;;5.47;3.63;;;;;;;17.00;60.98;101259.75;10467108;28;20060;-76
2022/05/25 06:14:26;;;;;;;13.10;3.27;;;;;;;17.25;58.69;101263.94;10419201;28;20374;-75
2022/05/25 06:19:26;;;;;;;8.53;3.77;;;;;;;17.59;59.42;101266.56;10444899;28;20044;-76
2022/05/25 06:24:28;;;;;;;10.17;3.97;;;;;;;17.73;59.30;101267.81;10468130;28;20043;-76
2022/05/25 06:29:28;;;;;;;7.38;3.35;;;;;;;18.55;55.22;101271.47;10449137;28;20036;-76
2022/05/25 06:34:29;;;;;;;9.50;4.00;;;;;;;18.82;54.53;101285.25;10474525;28;20131;-76
2022/05/25 06:39:33;;;;;;;6.50;3.53;;;;;;;18.64;55.28;101286.66;10474368;28;20064;-76
2022/05/25 06:44:34;;;;;;;6.15;2.88;;;;;;;18.89;55.27;101296.00;10451137;28;20049;-75
2022/05/25 06:49:34;;;;;;;6.63;3.43;;;;;;;19.46;54.68;101287.34;10476578;28;20136;-76
2022/05/25 06:54:35;;;;;;;7.97;3.67;;;;;;;19.44;50.97;101292.66;10474888;28;20123;-75
2022/05/25 06:59:35;;;;;;;5.73;4.13;;;;;;;19.65;51.22;101297.44;10479662;28;20495;-75
2022/05/25 07:04:37;;;;;;;6.67;3.50;;;;;;;19.41;52.12;101304.97;10452292;28;20527;-75
2022/05/25 07:09:40;;;;;;;8.23;3.95;;;;;;;19.74;52.29;101296.72;10470461;28;20383;-75
2022/05/25 07:14:42;;;;;;;6.55;2.80;;;;;;;21.06;47.86;101297.69;10458998;28;20389;-75
2022/05/25 07:19:44;;;;;;;6.07;3.22;;;;;;;20.91;48.32;101298.38;10475845;28;20488;-74
2022/05/25 07:24:46;;;;;;;8.48;3.13;;;;;;;22.53;45.64;101304.25;10490408;28;20064;-75
2022/05/25 07:29:46;;;;;;;13.68;7.15;;;;;;;22.21;44.30;101309.38;10471573;28;20131;-74
2022/05/25 07:34:55;;;;;;;9.20;3.33;;;;;;;22.04;47.24;101311.91;10480180;28;20044;-74
2022/05/25 07:39:58;;;;;;;11.15;5.57;;;;;;;22.27;45.51;101312.06;10469991;28;20063;-77
2022/05/25 07:45:00;;;;;;;7.53;3.08;;;;;;;22.77;43.66;101317.69;10454682;28;20037;-76
2022/05/25 07:50:00;;;;;;;;;;;;;;;22.34;43.03;101321.91;10485169;28;20032;-74
2022/05/25 07:55:02;;;;;;;4.43;2.40;;;;;;;22.39;43.18;101316.56;10488489;28;19916;-74
2022/05/25 08:00:03;;;;;;;6.80;2.03;;;;;;;22.18;44.17;101320.00;10488880;28;20044;-75
2022/05/25 08:10:24;;;;;;;6.00;2.97;;;;;;;22.44;41.98;101333.50;10451167;28;20036;-73
2022/05/25 08:15:25;;;;;;;4.30;1.55;;;;;;;23.14;40.71;101333.84;10447364;28;20128;-74
2022/05/25 08:20:26;;;;;;;4.78;1.95;;;;;;;23.18;40.63;101333.84;10445854;28;20065;-75
2022/05/25 08:25:26;;;;;;;7.13;2.83;;;;;;;23.45;42.01;101324.13;10445609;28;20531;-75
2022/05/25 08:30:27;;;;;;;6.00;2.07;;;;;;;23.56;39.24;101325.94;10447275;28;20045;-76
2022/05/25 08:35:29;;;;;;;6.95;3.40;;;;;;;24.00;38.38;101330.41;10446180;28;20033;-75
2022/05/25 08:40:30;;;;;;;24.90;2.58;;;;;;;23.44;41.12;101319.69;10445729;28;20037;-76
2022/05/25 08:45:46;;;;;;;4.88;1.80;;;;;;;22.59;41.49;101328.28;10428868;28;20103;-76
2022/05/25 08:50:50;;;;;;;5.07;2.15;;;;;;;23.54;39.12;101325.03;10470344;28;20461;-77
2022/05/25 08:56:16;;;;;;;8.85;5.57;;;;;;;23.08;39.17;101326.69;10469997;28;20109;-75
2022/05/25 09:01:25;;;;;;;7.72;2.17;;;;;;;23.13;40.19;101318.72;10486021;28;20543;-74
2022/05/25 09:06:47;;;;;;;3.22;1.58;;;;;;;22.19;42.26;101319.13;10485191;28;20071;-73
2022/05/25 09:11:50;;;;;;;2.90;2.20;;;;;;;23.54;40.20;101320.59;10486873;28;20186;-75
2022/05/25 09:16:51;;;;;;;22.75;16.65;;;;;;;23.51;38.02;101319.69;10485433;28;20049;-74
2022/05/25 09:21:53;;;;;;;4.40;1.52;;;;;;;24.31;37.61;101325.03;10486096;28;20036;-74
2022/05/25 09:26:54;;;;;;;1.73;1.15;;;;;;;24.20;37.61;101316.13;10469149;28;20052;-74
2022/05/25 09:31:58;;;;;;;2.20;1.20;;;;;;;23.69;38.08;101308.13;10485989;28;20392;-74
2022/05/25 09:37:22;;;;;;;3.50;1.15;;;;;;;24.63;37.29;101326.72;10469195;28;20052;-75
2022/05/25 09:42:23;;;;;;;3.28;1.42;;;;;;;24.64;34.74;101311.56;10470893;28;20037;-75
2022/05/25 09:47:35;;;;;;;1.90;1.13;;;;;;;24.60;34.45;101326.72;10484965;28;20123;-76
2022/05/25 09:52:42;;;;;;;3.53;0.98;;;;;;;25.90;33.19;101325.13;10484771;28;20040;-75
2022/05/25 09:57:45;;;;;;;6.60;3.85;;;;;;;24.70;33.79;101326.69;10484392;28;20353;-74
2022/05/25 10:02:48;;;;;;;2.75;1.00;;;;;;;23.73;38.75;101332.16;10465513;28;20415;-74
2022/05/25 10:08:03;;;;;;;0.75;0.52;;;;;;;25.35;33.47;101327.28;10483553;28;20032;-74
2022/05/25 10:13:12;;;;;;;7.05;1.95;;;;;;;26.02;31.50;101340.19;10451814;28;20442;-74
2022/05/25 10:18:13;;;;;;;3.53;1.00;;;;;;;25.05;33.38;101339.06;10451617;28;20037;-74
2022/05/25 10:23:22;;;;;;;4.13;0.90;;;;;;;23.34;38.75;101344.59;10466545;28;20044;-74
2022/05/25 10:28:34;;;;;;;2.85;0.70;;;;;;;25.18;38.29;101340.78;10464601;28;20029;-75
2022/05/25 10:39:13;;;;;;;3.83;0.85;;;;;;;20.93;39.84;101352.50;10473071;28;19920;-74
2022/05/25 10:44:20;;;;;;;1.77;0.77;;;;;;;19.73;44.16;101355.09;10481812;28;20484;-76
2022/05/25 10:49:33;;;;;;;2.40;1.10;;;;;;;22.34;38.67;101339.66;10481295;28;20048;-76
2022/05/25 10:54:47;;;;;;;6.38;1.85;;;;;;;23.45;36.05;101339.28;10479361;28;20107;-74
2022/05/25 10:59:48;;;;;;;3.78;1.50;;;;;;;24.04;35.68;101334.00;10465760;28;20062;-74
2022/05/25 11:04:58;;;;;;;2.90;1.20;;;;;;;23.34;37.47;101341.03;10482480;28;20051;-74
2022/05/25 11:10:24;;;;;;;5.80;1.67;;;;;;;23.59;34.94;101340.19;10483301;28;20063;-74
2022/05/25 11:15:49;;;;;;;3.30;1.63;;;;;;;20.27;41.09;101348.03;10460789;28;20097;-74
2022/05/25 11:21:06;;;;;;;3.65;1.60;;;;;;;19.42;44.59;101350.13;10481608;28;20049;-75
2022/05/25 11:26:41;;;;;;;3.67;1.45;;;;;;;22.78;37.46;101346.16;10479578;28;20120;-75
2022/05/25 11:31:50;;;;;;;5.60;1.85;;;;;;;24.41;35.92;101335.69;10440518;28;20040;-74
2022/05/25 11:37:21;;;;;;;3.05;1.38;;;;;;;23.92;36.45;101320.59;10475368;28;20048;-74
2022/05/25 11:42:34;;;;;;;2.80;0.73;;;;;;;25.15;34.73;101319.38;10471864;28;20518;-74
2022/05/25 11:47:40;;;;;;;1.73;0.90;;;;;;;25.44;31.64;101325.44;9596870;28;10000275;-76
2022/05/25 11:53:01;;;;;;;2.63;1.05;;;;;;;26.27;31.09;101314.97;10481429;28;20404;-76
2022/05/25 11:58:22;;;;;;;3.20;1.38;;;;;;;25.10;33.33;101305.09;10485600;28;20068;-74
2022/05/25 12:03:35;;;;;;;2.45;0.82;;;;;;;23.66;33.88;101314.34;10474007;28;20100;-76
2022/05/25 12:09:12;;;;;;;1.77;0.80;;;;;;;23.81;36.22;101308.13;10489679;28;20047;-75
2022/05/25 12:14:34;;;;;;;4.07;1.45;;;;;;;23.82;34.17;101295.66;10490359;28;20094;-75
2022/05/25 12:19:35;;;;;;;5.75;1.42;;;;;;;21.93;37.27;101314.50;10474506;28;20044;-74
2022/05/25 12:24:38;;;;;;;6.10;2.33;;;;;;;20.63;38.95;101317.53;10461121;28;20399;-73
2022/05/25 12:29:43;;;;;;;4.57;1.92;;;;;;;20.68;38.12;101318.50;10469544;28;20037;-74
2022/05/25 12:34:50;;;;;;;5.20;1.95;;;;;;;21.58;38.71;101323.06;10447710;28;20037;-74
2022/05/25 12:39:50;;;;;;;3.28;1.15;;;;;;;20.38;40.28;101329.59;10470345;28;20044;-74
2022/05/25 12:50:41;;;;;;;4.15;1.30;;;;;;;20.36;41.33;101326.00;10465244;28;20476;-77
2022/05/25 12:55:43;;;;;;;1.60;1.23;;;;;;;21.36;38.73;101315.72;10477232;28;20462;-78
2022/05/25 13:01:04;;;;;;;3.73;1.20;;;;;;;21.28;39.78;101320.09;10460085;28;20052;-77
2022/05/25 13:06:08;;;;;;;2.15;1.25;;;;;;;20.13;39.62;101326.56;10457396;28;20514;-77
2022/05/25 13:11:08;;;;;;;1.00;0.60;;;;;;;19.36;40.40;101342.03;10472433;28;20041;-73
2022/05/25 13:16:09;;;;;;;3.15;0.88;;;;;;;19.49;41.49;101332.53;10481078;28;20064;-74
2022/05/25 13:21:10;;;;;;;2.53;1.30;;;;;;;21.44;38.93;101322.91;10465527;28;20044;-73
2022/05/25 13:26:10;;;;;;;5.65;1.27;;;;;;;22.70;35.95;101309.66;10463162;28;20048;-74
2022/05/25 13:31:23;;;;;;;4.18;1.08;;;;;;;20.73;38.67;101307.03;10465885;28;20127;-74
2022/05/25 13:36:24;;;;;;;4.28;1.00;;;;;;;20.95;38.08;101322.41;10477906;28;20041;-73
2022/05/25 13:41:28;;;;;;;3.95;2.47;;;;;;;19.65;37.99;101318.66;10483195;28;20039;-74
2022/05/25 13:46:29;;;;;;;4.05;2.40;;;;;;;20.32;38.25;101325.09;10464165;28;20441;-74
2022/05/25 13:51:29;;;;;;;4.03;1.83;;;;;;;22.42;35.21;101320.16;10484425;28;20040;-74
2022/05/25 13:56:32;;;;;;;1.70;0.93;;;;;;;22.87;34.98;101314.19;10481576;28;20059;-74
2022/05/25 14:01:33;;;;;;;7.20;1.67;;;;;;;23.59;34.97;101316.16;10459465;28;20480;-75
2022/05/25 14:06:43;;;;;;;6.90;1.38;;;;;;;23.69;34.93;101306.34;10486156;28;20060;-75
2022/05/25 14:11:46;;;;;;;11.95;5.28;;;;;;;21.91;36.19;101319.81;10465477;28;20036;-75
2022/05/25 14:16:54;;;;;;;4.35;2.67;;;;;;;20.97;38.54;101312.66;10452067;28;20036;-75
2022/05/25 14:21:59;;;;;;;5.68;1.88;;;;;;;21.21;38.93;101323.56;10463930;28;20032;-75
2022/05/25 14:27:21;;;;;;;3.20;1.00;;;;;;;21.09;37.48;101311.03;10482304;28;20040;-75
2022/05/25 14:32:24;;;;;;;6.60;3.15;;;;;;;20.90;38.80;101312.56;10478910;28;20491;-75
2022/05/25 14:37:30;;;;;;;3.92;2.13;;;;;;;21.23;39.20;101319.16;10478141;28;20041;-74
2022/05/25 14:42:33;;;;;;;8.32;2.30;;;;;;;21.22;38.62;101326.25;10481207;28;20484;-75
2022/05/25 14:47:39;;;;;;;1.95;0.65;;;;;;;20.44;37.98;101324.34;10479881;28;20044;-74
2022/05/25 14:52:59;;;;;;;39.55;9.85;;;;;;;19.93;41.61;101328.91;10465711;28;20476;-74
2022/05/25 14:58:32;;;;;;;3.70;0.85;;;;;;;20.21;41.96;101329.34;10482818;28;20113;-74
2022/05/25 15:03:36;;;;;;;;;;;;;;;19.79;40.30;101344.56;10444541;28;20488;-74
2022/05/25 15:08:39;;;;;;;2.90;1.27;;;;;;;19.74;40.99;101330.31;10477958;28;20007;-75
2022/05/25 15:19:00;;;;;;;2.05;1.02;;;;;;;19.45;41.75;101341.31;10508009;28;20041;-74
2022/05/25 15:24:02;;;;;;;4.30;1.17;;;;;;;18.43;44.38;101343.63;10494506;28;20047;-74
2022/05/25 15:29:12;;;;;;;8.32;2.55;;;;;;;17.95;44.04;101344.22;10479251;28;20171;-74
2022/05/25 15:34:12;;;;;;;8.27;1.98;;;;;;;18.01;44.92;101349.69;10486565;28;20032;-75
2022/05/25 15:39:14;;;;;;;8.35;2.90;;;;;;;17.80;45.51;101347.38;10488199;28;20132;-75
2022/05/25 15:44:15;;;;;;;;;;;;;;;17.26;47.15;101362.72;10463890;28;20037;-75
2022/05/25 15:49:17;;;;;;;4.30;0.70;;;;;;;16.92;46.27;101351.13;10487870;28;20391;-75
2022/05/25 15:54:21;;;;;;;7.72;4.53;;;;;;;16.99;47.42;101367.25;10468345;28;20298;-75
2022/05/25 15:59:21;;;;;;;12.70;7.53;;;;;;;17.07;46.13;101364.84;10451997;28;20119;-74
2022/05/25 16:04:26;;;;;;;4.18;1.67;;;;;;;16.97;46.44;101376.00;10488065;28;20036;-75
2022/05/25 16:09:27;;;;;;;4.70;2.15;;;;;;;16.86;47.55;101378.28;10468951;28;20397;-73
2022/05/25 16:14:29;;;;;;;3.63;1.20;;;;;;;16.58;47.83;101383.63;10484119;28;20033;-75
2022/05/25 16:19:29;;;;;;;;;;;;;;;16.46;48.06;101382.34;10460723;28;20047;-75
2022/05/25 16:24:30;;;;;;;1.10;0.70;;;;;;;16.37;48.58;101383.84;10482153;28;19924;-75
2022/05/25 16:29:33;;;;;;;3.38;2.08;;;;;;;16.49;47.50;101382.44;10475590;28;20392;-74
2022/05/25 16:34:33;;;;;;;5.45;2.30;;;;;;;16.68;49.10;101395.38;10485610;28;20098;-76
2022/05/25 16:39:35;;;;;;;6.45;1.75;;;;;;;17.10;46.93;101386.09;10498765;28;20090;-76
2022/05/25 16:44:35;;;;;;;3.03;0.77;;;;;;;17.22;46.20;101388.16;10452117;28;20040;-73
2022/05/25 16:49:36;;;;;;;3.42;0.98;;;;;;;17.11;46.91;101385.22;10485022;28;20028;-75
2022/05/25 16:54:36;;;;;;;2.55;1.10;;;;;;;16.92;48.20;101396.97;10482795;28;20123;-74
2022/05/25 16:59:39;;;;;;;4.70;1.73;;;;;;;16.65;48.58;101397.91;10483290;28;20474;-74
2022/05/25 17:04:39;;;;;;;;;;;;;;;16.50;49.28;101397.44;10502731;28;20097;-74
2022/05/25 17:09:40;;;;;;;1.52;1.05;;;;;;;16.56;49.18;101400.25;10483854;28;19978;-74
2022/05/25 17:14:40;;;;;;;3.25;0.98;;;;;;;16.50;49.98;101400.06;10483998;28;20032;-73
2022/05/25 17:25:00;;;;;;;10.50;4.82;;;;;;;16.62;51.06;101400.47;10451811;28;20043;-75
2022/05/25 17:30:01;;;;;;;7.35;2.28;;;;;;;16.63;49.48;101401.38;10475699;28;20395;-76
2022/05/25 17:35:01;;;;;;;5.32;1.30;;;;;;;16.65;49.72;101405.84;10466377;28;20105;-74
2022/05/25 17:45:21;;;;;;;2.83;1.50;;;;;;;16.68;50.28;101416.50;10463127;28;20037;-75
2022/05/25 17:50:22;;;;;;;2.22;0.90;;;;;;;16.55;51.04;101415.25;10481300;28;20037;-75
2022/05/25 17:55:23;;;;;;;2.70;1.33;;;;;;;16.54;51.31;101424.00;10483064;28;20039;-75
2022/05/25 18:00:23;;;;;;;2.97;1.33;;;;;;;16.34;52.23;101420.72;10484134;28;20547;-75
2022/05/25 18:05:24;;;;;;;5.95;2.22;;;;;;;16.15;52.66;101435.06;10485565;28;20110;-76
2022/05/25 18:10:25;;;;;;;8.85;3.60;;;;;;;15.94;53.24;101435.22;10482770;28;20085;-76
2022/05/25 18:15:26;;;;;;;3.75;2.30;;;;;;;15.83;54.36;101434.81;10481643;28;20508;-75
2022/05/25 18:20:28;;;;;;;7.10;1.80;;;;;;;15.71;55.53;101436.19;10464186;28;20375;-75
2022/05/25 18:25:33;;;;;;;1.20;0.90;;;;;;;15.69;55.52;101429.03;10462598;28;20037;-76
2022/05/25 18:30:33;;;;;;;3.45;1.58;;;;;;;15.62;54.92;101438.50;10480308;28;20059;-75
2022/05/25 18:35:34;;;;;;;5.15;1.80;;;;;;;15.66;55.06;101442.13;10482236;28;20442;-76
2022/05/25 18:40:35;;;;;;;16.05;5.13;;;;;;;15.60;55.14;101442.81;10480910;28;20502;-76
2022/05/25 18:45:36;;;;;;;18.33;10.02;;;;;;;15.49;55.22;101450.31;10463035;28;20044;-75
2022/05/25 18:50:36;;;;;;;5.90;3.08;;;;;;;15.40;55.27;101460.53;10467761;28;20052;-75
2022/05/25 18:55:37;;;;;;;6.18;2.47;;;;;;;15.34;55.64;101448.03;10460004;28;20097;-75
2022/05/25 19:00:40;;;;;;;4.57;1.45;;;;;;;15.23;55.85;101450.25;10463758;28;20135;-73
2022/05/25 19:05:40;;;;;;;5.43;2.45;;;;;;;15.13;56.51;101458.66;10481155;28;20488;-73
2022/05/25 19:10:42;;;;;;;11.98;5.95;;;;;;;15.08;56.88;101458.47;10463029;28;20048;-73
2022/05/25 19:15:43;;;;;;;3.83;2.90;;;;;;;15.11;56.85;101462.97;10465539;28;20491;-74
2022/05/25 19:20:43;;;;;;;3.40;1.40;;;;;;;15.02;57.37;101471.44;10481625;28;20079;-73
2022/05/25 19:25:50;;;;;;;9.32;1.75;;;;;;;14.93;58.27;101471.94;10481868;28;20130;-74
2022/05/25 19:30:51;;;;;;;21.95;13.88;;;;;;;14.90;58.60;101485.00;10480734;28;20047;-74
2022/05/25 19:35:53;;;;;;;10.27;6.10;;;;;;;14.85;58.75;101489.19;10439961;28;20043;-73
2022/05/25 19:40:54;;;;;;;9.75;3.65;;;;;;;14.79;59.58;101488.94;10462740;28;20056;-73
2022/05/25 19:45:55;;;;;;;3.47;1.98;;;;;;;14.74;60.10;101495.75;10461523;28;20509;-74
2022/05/25 19:50:57;;;;;;;4.53;1.75;;;;;;;14.80;58.66;101498.66;10443776;28;20041;-73
2022/05/25 19:55:58;;;;;;;5.63;2.60;;;;;;;14.74;59.41;101508.94;10479579;28;20094;-74
2022/05/25 20:00:59;;;;;;;17.55;6.40;;;;;;;14.74;59.65;101512.50;10480078;28;20090;-73
2022/05/25 20:05:59;;;;;;;16.10;4.70;;;;;;;14.74;59.94;101517.75;10476542;28;20419;-74
2022/05/25 20:11:00;;;;;;;5.82;3.20;;;;;;;14.70;60.20;101514.91;10479535;28;20053;-74
2022/05/25 20:16:00;;;;;;;4.10;1.70;;;;;;;14.60;60.87;101519.78;10476859;28;20032;-75
2022/05/25 20:21:04;;;;;;;6.95;1.67;;;;;;;14.57;60.95;101532.81;10487703;28;20043;-75
2022/05/25 20:26:05;;;;;;;2.97;1.48;;;;;;;14.50;60.94;101530.75;10475905;28;20122;-75
2022/05/25 20:31:05;;;;;;;3.85;1.50;;;;;;;14.56;61.12;101532.78;10480489;28;20532;-76
2022/05/25 20:36:09;;;;;;;4.22;2.05;;;;;;;14.55;61.44;101542.38;10472991;28;20069;-75
2022/05/25 20:41:10;;;;;;;6.05;2.22;;;;;;;14.57;61.29;101539.84;10470212;28;20036;-76
2022/05/25 20:46:10;;;;;;;8.25;3.95;;;;;;;14.58;60.95;101539.00;10485976;28;20052;-75
2022/05/25 20:51:11;;;;;;;3.08;1.45;;;;;;;14.59;61.56;101539.03;10482805;28;20040;-78
2022/05/25 20:56:12;;;;;;;4.93;2.28;;;;;;;14.44;62.59;101538.41;10487285;28;20124;-75
2022/05/25 21:01:12;;;;;;;3.47;1.30;;;;;;;14.33;63.20;101537.97;10484173;28;20036;-75
2022/05/25 21:06:14;;;;;;;6.68;1.80;;;;;;;14.30;63.40;101530.81;10484036;28;20045;-76
2022/05/25 21:11:17;;;;;;;2.63;1.75;;;;;;;14.27;63.78;101546.47;10484691;28;20072;-76
2022/05/25 21:16:21;;;;;;;2.53;1.40;;;;;;;14.21;64.30;101546.22;10484813;28;20558;-76
2022/05/25 21:21:22;;;;;;;9.47;2.13;;;;;;;14.24;64.13;101543.72;10464119;28;20032;-77
2022/05/25 21:26:23;;;;;;;4.47;1.33;;;;;;;14.22;64.71;101545.38;10483003;28;20405;-76
2022/05/25 21:36:42;;;;;;;7.75;2.15;;;;;;;14.27;64.13;101553.50;10484068;28;20469;-76
2022/05/25 21:41:43;;;;;;;5.78;1.55;;;;;;;14.28;64.47;101552.66;10478921;28;20147;-75
2022/05/25 21:52:04;;;;;;;2.85;1.23;;;;;;;14.33;65.30;101556.38;10422457;28;20045;-75
2022/05/25 21:57:05;;;;;;;4.78;2.20;;;;;;;14.22;66.97;101559.47;10483871;28;20047;-76
2022/05/25 22:02:05;;;;;;;4.10;2.08;;;;;;;14.17;67.52;101568.88;10469746;28;20037;-76
2022/05/25 22:07:06;;;;;;;1.83;1.52;;;;;;;14.12;68.03;101564.22;10483840;28;20119;-75
2022/05/25 22:12:08;;;;;;;4.60;1.38;;;;;;;14.05;68.48;101571.84;10448521;28;20139;-76
2022/05/25 22:17:08;;;;;;;3.83;0.90;;;;;;;14.05;68.93;101568.34;10483565;28;20553;-76
2022/05/25 22:22:09;;;;;;;3.85;1.33;;;;;;;14.03;68.76;101560.34;10479501;28;20094;-75
2022/05/25 22:27:10;;;;;;;2.40;1.75;;;;;;;14.00;68.98;101572.50;10457728;28;20040;-76
2022/05/25 22:32:10;;;;;;;1.60;0.93;;;;;;;13.98;69.05;101576.78;10463956;28;20047;-75
2022/05/25 22:37:11;;;;;;;5.55;1.00;;;;;;;13.92;69.59;101580.94;10482157;28;20094;-76
2022/05/25 22:42:11;;;;;;;1.60;1.20;;;;;;;13.86;69.94;101580.66;10470187;28;20029;-75
2022/05/25 22:47:12;;;;;;;7.05;1.63;;;;;;;13.89;69.81;101582.53;10483677;28;20502;-75
2022/05/25 22:52:12;;;;;;;6.68;2.67;;;;;;;13.90;69.88;101581.69;10483942;28;20087;-75
2022/05/25 22:57:13;;;;;;;4.20;1.50;;;;;;;13.88;70.04;101579.00;10476020;28;20090;-76
2022/05/25 23:02:13;;;;;;;7.40;2.45;;;;;;;13.81;70.14;101584.81;10480842;28;20181;-74
2022/05/25 23:07:14;;;;;;;4.28;1.40;;;;;;;13.85;69.81;101580.59;10483191;28;20383;-75
2022/05/25 23:12:14;;;;;;;3.38;1.65;;;;;;;13.86;69.92;101590.28;10477485;28;20113;-74
2022/05/25 23:17:15;;;;;;;5.60;2.05;;;;;;;13.84;70.48;101584.97;10463819;28;20063;-75
2022/05/25 23:22:16;;;;;;;4.75;1.73;;;;;;;13.88;69.83;101585.97;10477512;28;20040;-75
2022/05/25 23:27:16;;;;;;;3.10;1.77;;;;;;;13.85;70.89;101596.38;10474866;28;20068;-76
2022/05/25 23:32:17;;;;;;;3.97;2.00;;;;;;;13.83;70.75;101598.94;10484157;28;20459;-75
2022/05/25 23:37:18;;;;;;;3.03;1.60;;;;;;;13.86;71.26;101595.53;10464167;28;20051;-76
2022/05/25 23:47:41;;;;;;;5.65;2.10;;;;;;;13.82;71.81;101591.88;10482092;28;20041;-75
2022/05/25 23:52:41;;;;;;;6.32;1.98;;;;;;;13.74;72.04;101588.88;10485105;28;20070;-75
2022/05/25 23:57:42;;;;;;;3.25;1.83;;;;;;;13.78;72.28;101592.56;10488447;28;20066;-75
